createdAt,value
2023-04-11T00:00:24.996Z,5.65
2023-04-11T00:01:24.999Z,5.73
2023-04-11T00:03:35.545Z,5.75
2023-04-11T00:04:35.388Z,5.65
2023-04-11T00:05:35.304Z,5.58
2023-04-11T00:06:35.354Z,5.55
2023-04-11T00:07:35.298Z,5.60
2023-04-11T00:08:35.298Z,5.60
2023-04-11T00:09:35.278Z,5.59
2023-04-11T00:10:35.247Z,5.56
2023-04-11T00:11:35.240Z,5.56
2023-04-11T00:12:35.251Z,5.55
2023-04-11T00:13:35.216Z,5.47
2023-04-11T00:14:35.205Z,5.56
2023-04-11T00:15:35.227Z,5.56
2023-04-11T00:16:35.212Z,5.63
2023-04-11T00:17:35.223Z,5.62
2023-04-11T00:18:35.168Z,5.83
2023-04-11T00:19:35.151Z,5.73
2023-04-11T00:20:35.140Z,5.85
2023-04-11T00:21:35.130Z,5.81
2023-04-11T00:22:35.120Z,5.83
2023-04-11T00:23:35.129Z,5.80
2023-04-11T00:24:35.109Z,5.74
2023-04-11T00:25:35.099Z,5.83
2023-04-11T00:26:35.089Z,5.74
2023-04-11T00:27:35.077Z,5.87
2023-04-11T00:28:35.055Z,5.93
2023-04-11T00:29:35.069Z,5.93
2023-04-11T00:30:35.031Z,5.90
2023-04-11T00:31:35.085Z,5.93
2023-04-11T00:32:35.027Z,5.92
2023-04-11T00:33:34.997Z,5.90
2023-04-11T00:34:34.988Z,5.85
2023-04-11T00:35:35.079Z,5.83
2023-04-11T00:36:35.033Z,5.78
2023-04-11T00:37:34.957Z,5.78
2023-04-11T00:38:34.943Z,5.80
2023-04-11T00:39:34.933Z,5.66
2023-04-11T00:40:34.924Z,5.78
2023-04-11T00:41:34.935Z,5.73
2023-04-11T00:42:34.898Z,5.85
2023-04-11T00:43:34.890Z,5.78
2023-04-11T00:44:34.888Z,5.88
2023-04-11T00:45:34.940Z,5.85
2023-04-11T00:46:34.864Z,5.87
2023-04-11T00:47:34.924Z,5.85
2023-04-11T00:48:34.848Z,5.80
2023-04-11T00:49:34.829Z,5.93
2023-04-11T00:50:34.813Z,5.83
2023-04-11T00:51:34.802Z,5.84
2023-04-11T00:52:34.791Z,5.85
2023-04-11T00:53:34.818Z,5.77
2023-04-11T00:54:34.782Z,5.70
2023-04-11T00:55:34.757Z,5.80
2023-04-11T00:56:34.749Z,5.67
2023-04-11T00:57:34.738Z,5.74
2023-04-11T00:58:34.727Z,5.69
2023-04-11T00:59:34.736Z,5.65
2023-04-11T01:00:34.712Z,5.77
2023-04-11T01:01:34.727Z,5.63
2023-04-11T01:02:34.766Z,5.63
2023-04-11T01:03:34.876Z,5.67
2023-04-11T01:04:34.661Z,5.77
2023-04-11T01:05:34.696Z,5.73
2023-04-11T01:06:34.673Z,5.78
2023-04-11T01:07:34.633Z,5.65
2023-04-11T01:08:34.621Z,5.69
2023-04-11T01:09:34.636Z,5.69
2023-04-11T01:10:34.613Z,5.69
2023-04-11T01:11:34.635Z,5.51
2023-04-11T01:12:34.593Z,5.60
2023-04-11T01:13:34.580Z,5.48
2023-04-11T01:14:34.575Z,5.44
2023-04-11T01:15:34.550Z,5.51
2023-04-11T01:16:34.568Z,5.63
2023-04-11T01:17:34.658Z,5.65
2023-04-11T01:18:34.516Z,5.55
2023-04-11T01:19:34.532Z,5.56
2023-04-11T01:20:34.506Z,5.73
2023-04-11T01:21:34.489Z,5.56
2023-04-11T01:22:34.475Z,5.52
2023-04-11T01:23:34.512Z,5.56
2023-04-11T01:24:34.450Z,5.58
2023-04-11T01:25:34.441Z,5.48
2023-04-11T01:26:34.434Z,5.55
2023-04-11T01:27:34.427Z,5.51
2023-04-11T01:28:34.412Z,5.59
2023-04-11T01:29:34.431Z,5.60
2023-04-11T01:30:34.405Z,5.49
2023-04-11T01:31:34.386Z,5.51
2023-04-11T01:32:34.393Z,5.49
2023-04-11T01:33:34.360Z,5.47
2023-04-11T01:34:34.356Z,5.63
2023-04-11T01:35:34.382Z,5.47
2023-04-11T01:36:34.327Z,5.55
2023-04-11T01:37:34.314Z,5.55
2023-04-11T01:38:34.302Z,5.58
2023-04-11T01:39:34.302Z,5.56
2023-04-11T01:40:34.279Z,5.73
2023-04-11T01:41:34.295Z,5.58
2023-04-11T01:42:34.254Z,5.65
2023-04-11T01:43:34.246Z,5.60
2023-04-11T01:44:34.238Z,5.48
2023-04-11T01:45:34.232Z,5.62
2023-04-11T01:46:34.210Z,5.63
2023-04-11T01:47:34.290Z,5.59
2023-04-11T01:48:34.460Z,5.67
2023-04-11T01:49:34.190Z,5.62
2023-04-11T01:50:34.173Z,5.73
2023-04-11T01:51:34.186Z,5.66
2023-04-11T01:52:34.145Z,5.66
2023-04-11T01:53:34.162Z,5.73
2023-04-11T01:54:34.153Z,5.69
2023-04-11T01:55:34.111Z,5.80
2023-04-11T01:56:34.115Z,5.69
2023-04-11T01:57:34.091Z,5.70
2023-04-11T01:58:34.077Z,5.67
2023-04-11T01:59:34.086Z,5.66
2023-04-11T02:00:34.079Z,5.74
2023-04-11T02:01:34.147Z,5.75
2023-04-11T02:02:34.116Z,5.88
2023-04-11T02:03:34.275Z,5.88
2023-04-11T02:04:34.014Z,5.78
2023-04-11T02:05:34.037Z,6.01
2023-04-11T02:06:34.003Z,5.78
2023-04-11T02:07:34.005Z,5.83
2023-04-11T02:08:33.976Z,5.93
2023-04-11T02:09:33.959Z,5.95
2023-04-11T02:10:33.963Z,5.90
2023-04-11T02:11:33.969Z,5.84
2023-04-11T02:12:33.927Z,5.95
2023-04-11T02:13:33.918Z,5.83
2023-04-11T02:14:33.906Z,5.92
2023-04-11T02:15:33.940Z,5.85
2023-04-11T02:16:33.892Z,5.92
2023-04-11T02:17:33.961Z,5.84
2023-04-11T02:18:33.875Z,5.81
2023-04-11T02:19:36.374Z,5.78
2023-04-11T02:20:33.842Z,5.75
2023-04-11T02:21:33.833Z,5.80
2023-04-11T02:22:33.841Z,5.81
2023-04-11T02:23:33.842Z,5.62
2023-04-11T02:24:33.801Z,5.49
2023-04-11T02:25:33.810Z,5.35
2023-04-11T02:26:33.787Z,5.42
2023-04-11T02:27:33.766Z,5.32
2023-04-11T02:28:33.761Z,5.35
2023-04-11T02:29:33.772Z,5.37
2023-04-11T02:30:33.752Z,5.29
2023-04-11T02:31:33.796Z,5.24
2023-04-11T02:32:33.742Z,5.30
2023-04-11T02:33:33.702Z,5.22
2023-04-11T02:34:33.696Z,5.11
2023-04-11T02:35:33.710Z,5.19
2023-04-11T02:36:33.680Z,5.15
2023-04-11T02:37:33.661Z,5.17
2023-04-11T02:38:33.647Z,4.97
2023-04-11T02:39:33.663Z,5.01
2023-04-11T02:40:33.625Z,4.93
2023-04-11T02:41:33.633Z,4.96
2023-04-11T02:42:33.664Z,4.90
2023-04-11T02:43:33.591Z,4.91
2023-04-11T02:44:33.590Z,4.91
2023-04-11T02:45:33.583Z,5.01
2023-04-11T02:46:33.586Z,4.84
2023-04-11T02:47:33.645Z,4.93
2023-04-11T02:48:33.550Z,4.86
2023-04-11T02:49:33.534Z,4.91
2023-04-11T02:50:33.524Z,4.93
2023-04-11T02:51:33.508Z,4.83
2023-04-11T02:52:33.493Z,4.97
2023-04-11T02:53:33.510Z,4.94
2023-04-11T02:54:33.492Z,4.86
2023-04-11T02:55:33.489Z,4.88
2023-04-11T02:56:33.451Z,4.88
2023-04-11T02:57:33.440Z,5.01
2023-04-11T02:58:33.440Z,4.94
2023-04-11T02:59:33.439Z,4.96
2023-04-11T03:00:33.407Z,5.08
2023-04-11T03:01:33.451Z,4.99
2023-04-11T03:02:33.540Z,5.05
2023-04-11T03:03:33.459Z,5.27
2023-04-11T03:04:33.429Z,5.15
2023-04-11T03:05:33.370Z,5.19
2023-04-11T03:06:33.357Z,5.19
2023-04-11T03:07:33.333Z,5.20
2023-04-11T03:08:33.320Z,5.30
2023-04-11T03:09:33.322Z,5.24
2023-04-11T03:10:33.312Z,5.30
2023-04-11T03:11:33.327Z,5.40
2023-04-11T03:12:33.278Z,5.38
2023-04-11T03:13:33.266Z,5.38
2023-04-11T03:14:33.257Z,5.47
2023-04-11T03:15:33.248Z,5.48
2023-04-11T03:16:33.387Z,5.49
2023-04-11T03:17:33.310Z,5.45
2023-04-11T03:18:33.227Z,5.38
2023-04-11T03:19:33.202Z,5.51
2023-04-11T03:20:33.205Z,5.45
2023-04-11T03:21:33.183Z,5.55
2023-04-11T03:22:33.186Z,5.49
2023-04-11T03:23:33.174Z,5.55
2023-04-11T03:24:33.156Z,5.51
2023-04-11T03:25:33.143Z,5.55
2023-04-11T03:26:33.128Z,5.56
2023-04-11T03:27:33.137Z,5.51
2023-04-11T03:28:33.120Z,5.56
2023-04-11T03:29:33.110Z,5.52
2023-04-11T03:30:33.088Z,5.63
2023-04-11T03:31:33.166Z,5.52
2023-04-11T03:32:33.110Z,5.48
2023-04-11T03:33:33.055Z,5.59
2023-04-11T03:34:33.064Z,5.63
2023-04-11T03:35:33.053Z,5.58
2023-04-11T03:36:33.024Z,5.69
2023-04-11T03:37:33.011Z,5.69
2023-04-11T03:38:33.019Z,5.67
2023-04-11T03:39:32.992Z,5.65
2023-04-11T03:40:32.978Z,5.74
2023-04-11T03:41:33.003Z,5.69
2023-04-11T03:42:32.969Z,5.62
2023-04-11T03:43:32.981Z,5.85
2023-04-11T03:44:32.935Z,5.84
2023-04-11T03:45:32.926Z,5.75
2023-04-11T03:46:32.931Z,5.80
2023-04-11T03:47:32.964Z,5.88
2023-04-11T03:48:32.919Z,5.85
2023-04-11T03:49:32.882Z,5.88
2023-04-11T03:50:32.869Z,5.92
2023-04-11T03:51:32.857Z,5.87
2023-04-11T03:52:32.856Z,5.85
2023-04-11T03:53:32.876Z,5.81
2023-04-11T03:54:32.850Z,5.78
2023-04-11T03:55:32.816Z,5.84
2023-04-11T03:56:32.803Z,5.81
2023-04-11T03:57:32.792Z,5.66
2023-04-11T03:58:32.783Z,5.70
2023-04-11T03:59:32.850Z,5.65
2023-04-11T04:00:32.768Z,5.63
2023-04-11T04:01:32.785Z,5.59
2023-04-11T04:02:32.919Z,5.62
2023-04-11T04:03:33.055Z,5.67
2023-04-11T04:04:32.893Z,5.52
2023-04-11T04:05:32.728Z,5.56
2023-04-11T04:06:32.699Z,5.49
2023-04-11T04:07:32.684Z,5.58
2023-04-11T04:08:32.671Z,5.56
2023-04-11T04:09:32.660Z,5.47
2023-04-11T04:10:32.648Z,5.49
2023-04-11T04:11:32.664Z,5.48
2023-04-11T04:12:32.628Z,5.45
2023-04-11T04:13:32.634Z,5.49
2023-04-11T04:14:32.610Z,5.47
2023-04-11T04:15:32.615Z,5.45
2023-04-11T04:16:32.616Z,5.51
2023-04-11T04:17:32.648Z,5.47
2023-04-11T04:18:32.591Z,5.62
2023-04-11T04:19:32.601Z,5.62
2023-04-11T04:20:32.551Z,5.58
2023-04-11T04:21:32.622Z,5.58
2023-04-11T04:22:32.519Z,5.74
2023-04-11T04:23:32.583Z,5.73
2023-04-11T04:24:32.517Z,5.70
2023-04-11T04:25:32.492Z,5.66
2023-04-11T04:26:32.502Z,5.66
2023-04-11T04:27:32.493Z,5.75
2023-04-11T04:28:32.468Z,5.73
2023-04-11T04:29:32.458Z,5.60
2023-04-11T04:30:32.478Z,5.66
2023-04-11T04:31:32.542Z,5.52
2023-04-11T04:32:32.436Z,5.62
2023-04-11T04:33:32.400Z,5.63
2023-04-11T04:34:32.394Z,5.65
2023-04-11T04:35:32.453Z,5.69
2023-04-11T04:36:32.374Z,5.77
2023-04-11T04:37:32.361Z,5.66
2023-04-11T04:38:32.353Z,5.70
2023-04-11T04:39:32.337Z,5.77
2023-04-11T04:40:32.326Z,5.81
2023-04-11T04:41:32.324Z,5.77
2023-04-11T04:42:32.312Z,5.70
2023-04-11T04:43:32.444Z,5.78
2023-04-11T04:44:32.295Z,5.66
2023-04-11T04:45:32.299Z,5.70
2023-04-11T04:46:32.258Z,5.65
2023-04-11T04:47:32.320Z,5.69
2023-04-11T04:48:32.250Z,5.65
2023-04-11T04:49:32.226Z,5.58
2023-04-11T04:50:32.214Z,5.59
2023-04-11T04:51:32.202Z,5.59
2023-04-11T04:52:32.192Z,5.59
2023-04-11T04:53:32.199Z,5.49
2023-04-11T04:54:32.206Z,5.62
2023-04-11T04:55:32.162Z,5.55
2023-04-11T04:56:32.156Z,5.60
2023-04-11T04:57:32.257Z,5.55
2023-04-11T04:58:32.127Z,5.66
2023-04-11T04:59:32.145Z,5.56
2023-04-11T05:00:32.111Z,5.59
2023-04-11T05:01:32.150Z,5.73
2023-04-11T05:02:32.189Z,5.65
2023-04-11T05:03:32.186Z,5.65
2023-04-11T05:04:32.123Z,5.67
2023-04-11T05:05:32.073Z,5.60
2023-04-11T05:06:32.070Z,5.66
2023-04-11T05:07:32.024Z,5.59
2023-04-11T05:08:32.034Z,5.65
2023-04-11T05:09:32.020Z,5.63
2023-04-11T05:10:32.016Z,5.69
2023-04-11T05:11:32.003Z,5.70
2023-04-11T05:12:31.973Z,5.74
2023-04-11T05:13:31.965Z,5.69
2023-04-11T05:14:31.961Z,5.66
2023-04-11T05:15:31.940Z,5.77
2023-04-11T05:16:31.971Z,5.83
2023-04-11T05:17:31.962Z,5.70
2023-04-11T05:18:31.924Z,5.81
2023-04-11T05:19:31.917Z,5.83
2023-04-11T05:20:31.899Z,5.74
2023-04-11T05:21:31.877Z,5.69
2023-04-11T05:22:31.871Z,5.80
2023-04-11T05:23:31.887Z,5.78
2023-04-11T05:24:31.845Z,5.78
2023-04-11T05:25:31.836Z,5.78
2023-04-11T05:26:31.839Z,5.70
2023-04-11T05:27:31.815Z,5.87
2023-04-11T05:28:31.802Z,5.77
2023-04-11T05:29:31.824Z,5.66
2023-04-11T05:30:31.806Z,5.60
2023-04-11T05:31:31.770Z,5.58
2023-04-11T05:32:31.850Z,5.75
2023-04-11T05:33:31.746Z,5.77
2023-04-11T05:34:31.738Z,5.59
2023-04-11T05:35:31.753Z,5.75
2023-04-11T05:36:31.721Z,5.77
2023-04-11T05:37:31.715Z,5.80
2023-04-11T05:38:31.720Z,5.74
2023-04-11T05:39:31.689Z,5.81
2023-04-11T05:40:31.673Z,5.77
2023-04-11T05:41:31.686Z,5.65
2023-04-11T05:42:31.655Z,5.87
2023-04-11T05:43:31.643Z,5.73
2023-04-11T05:44:31.651Z,5.75
2023-04-11T05:45:31.622Z,5.87
2023-04-11T05:46:31.742Z,5.83
2023-04-11T05:47:31.684Z,5.87
2023-04-11T05:48:31.592Z,5.90
2023-04-11T05:49:31.576Z,5.96
2023-04-11T05:50:31.582Z,5.98
2023-04-11T05:51:31.578Z,5.87
2023-04-11T05:52:31.547Z,5.95
2023-04-11T05:53:31.568Z,5.99
2023-04-11T05:54:31.528Z,6.02
2023-04-11T05:55:31.527Z,6.13
2023-04-11T05:56:31.511Z,6.14
2023-04-11T05:57:31.498Z,5.96
2023-04-11T05:58:31.485Z,6.10
2023-04-11T05:59:31.489Z,6.08
2023-04-11T06:00:31.502Z,6.02
2023-04-11T06:01:31.445Z,6.11
2023-04-11T06:02:31.659Z,6.16
2023-04-11T06:03:31.485Z,6.01
2023-04-11T06:04:31.604Z,5.90
2023-04-11T06:05:31.586Z,5.93
2023-04-11T06:06:31.403Z,6.02
2023-04-11T06:07:31.510Z,5.93
2023-04-11T06:08:31.372Z,6.01
2023-04-11T06:09:33.485Z,5.90
2023-04-11T06:10:31.348Z,6.01
2023-04-11T06:11:31.356Z,6.01
2023-04-11T06:12:31.336Z,5.93
2023-04-11T06:13:31.317Z,6.06
2023-04-11T06:14:31.307Z,5.93
2023-04-11T06:15:31.293Z,6.08
2023-04-11T06:16:31.335Z,6.08
2023-04-11T06:17:31.349Z,6.14
2023-04-11T06:18:31.261Z,6.19
2023-04-11T06:19:31.251Z,6.19
2023-04-11T06:20:31.256Z,6.27
2023-04-11T06:21:31.228Z,6.28
2023-04-11T06:22:31.221Z,6.38
2023-04-11T06:23:31.243Z,6.40
2023-04-11T06:24:31.196Z,6.28
2023-04-11T06:25:31.193Z,6.13
2023-04-11T06:26:31.173Z,6.20
2023-04-11T06:27:31.164Z,6.17
2023-04-11T06:28:31.154Z,6.13
2023-04-11T06:29:31.180Z,6.27
2023-04-11T06:30:31.137Z,6.21
2023-04-11T06:31:31.186Z,6.10
2023-04-11T06:32:31.151Z,6.08
2023-04-11T06:33:31.111Z,6.19
2023-04-11T06:34:31.096Z,6.16
2023-04-11T06:35:31.140Z,6.14
2023-04-11T06:36:31.071Z,6.14
2023-04-11T06:37:31.060Z,6.16
2023-04-11T06:38:31.046Z,6.27
2023-04-11T06:39:31.181Z,6.27
2023-04-11T06:40:31.044Z,6.27
2023-04-11T06:41:31.068Z,6.39
2023-04-11T06:42:31.008Z,6.33
2023-04-11T06:43:30.997Z,6.33
2023-04-11T06:44:31.013Z,6.36
2023-04-11T06:45:31.019Z,6.28
2023-04-11T06:46:31.024Z,6.25
2023-04-11T06:47:31.007Z,6.35
2023-04-11T06:48:30.946Z,6.25
2023-04-11T06:49:30.932Z,6.27
2023-04-11T06:50:30.920Z,6.38
2023-04-11T06:51:30.912Z,6.42
2023-04-11T06:52:30.899Z,6.46
2023-04-11T06:53:30.918Z,6.54
2023-04-11T06:54:30.885Z,6.68
2023-04-11T06:55:30.886Z,6.68
2023-04-11T06:56:30.854Z,6.71
2023-04-11T06:57:30.847Z,6.68
2023-04-11T06:58:30.833Z,6.76
2023-04-11T06:59:30.879Z,6.87
2023-04-11T07:00:30.826Z,6.94
2023-04-11T07:01:30.974Z,6.90
2023-04-11T07:02:30.979Z,6.78
2023-04-11T07:03:30.946Z,6.82
2023-04-11T07:04:30.960Z,6.89
2023-04-11T07:05:30.781Z,6.86
2023-04-11T07:06:30.775Z,6.73
2023-04-11T07:07:30.750Z,6.50
2023-04-11T07:08:30.724Z,6.55
2023-04-11T07:09:30.715Z,6.42
2023-04-11T07:10:30.703Z,6.42
2023-04-11T07:11:30.720Z,6.46
2023-04-11T07:12:30.680Z,6.50
2023-04-11T07:13:30.686Z,6.50
2023-04-11T07:14:30.674Z,6.51
2023-04-11T07:15:30.652Z,6.45
2023-04-11T07:16:30.690Z,6.40
2023-04-11T07:17:30.669Z,6.38
2023-04-11T07:18:30.620Z,6.40
2023-04-11T07:19:30.628Z,6.33
2023-04-11T07:20:30.594Z,6.42
2023-04-11T07:21:30.585Z,6.35
2023-04-11T07:22:30.574Z,6.36
2023-04-11T07:23:30.600Z,6.35
2023-04-11T07:24:30.563Z,6.48
2023-04-11T07:25:30.747Z,6.63
2023-04-11T07:26:30.534Z,6.58
2023-04-11T07:27:30.542Z,6.68
2023-04-11T07:28:30.511Z,6.68
2023-04-11T07:29:30.539Z,6.69
2023-04-11T08:28:54.541Z,7.05
2023-04-11T08:29:54.514Z,6.89
2023-04-11T08:30:54.559Z,6.82
2023-04-11T08:31:54.482Z,6.99
2023-04-11T08:32:54.497Z,7.08
2023-04-11T08:33:54.615Z,6.90
2023-04-11T08:34:54.473Z,6.93
2023-04-11T08:35:54.488Z,6.90
2023-04-11T08:36:54.426Z,6.76
2023-04-11T08:37:54.435Z,6.87
2023-04-11T08:38:54.406Z,6.90
2023-04-11T08:39:54.408Z,7.05
2023-04-11T08:40:54.382Z,7.09
2023-04-11T08:41:54.371Z,7.23
2023-04-11T08:42:54.378Z,7.15
2023-04-11T08:43:54.719Z,7.11
2023-04-11T08:44:54.356Z,7.14
2023-04-11T08:45:54.380Z,7.42
2023-04-11T08:46:54.320Z,7.21
2023-04-11T08:47:54.364Z,7.21
2023-04-11T08:48:54.306Z,7.39
2023-04-11T08:49:54.292Z,7.37
2023-04-11T08:50:54.275Z,7.44
2023-04-11T08:51:54.275Z,7.66
2023-04-11T08:52:54.252Z,7.67
2023-04-11T08:53:54.521Z,7.48
2023-04-11T08:54:54.245Z,7.45
2023-04-11T08:55:54.223Z,7.19
2023-04-11T08:56:54.209Z,7.32
2023-04-11T08:57:54.194Z,7.18
2023-04-11T08:58:54.197Z,6.93
2023-04-11T08:59:54.194Z,6.78
2023-04-11T09:00:54.481Z,6.68
2023-04-11T09:01:54.196Z,6.79
2023-04-11T09:02:54.194Z,6.82
2023-04-11T09:03:54.302Z,6.71
2023-04-11T09:04:54.136Z,6.83
2023-04-11T09:05:54.109Z,6.94
2023-04-11T09:06:54.121Z,6.89
2023-04-11T09:07:54.088Z,6.87
2023-04-11T09:08:54.076Z,6.94
2023-04-11T09:09:54.075Z,6.94
2023-04-11T09:10:54.065Z,6.99
2023-04-11T09:11:54.050Z,6.91
2023-04-11T09:12:54.044Z,6.87
2023-04-11T09:13:54.239Z,6.90
2023-04-11T09:14:54.102Z,6.91
2023-04-11T09:15:54.041Z,6.97
2023-04-11T09:16:54.044Z,6.89
2023-04-11T09:17:54.047Z,6.89
2023-04-11T09:18:54.006Z,6.99
2023-04-11T09:19:53.958Z,6.97
2023-04-11T09:20:53.950Z,7.11
2023-04-11T09:21:53.950Z,7.29
2023-04-11T09:22:53.930Z,7.18
2023-04-11T09:23:54.175Z,7.18
2023-04-11T09:24:53.935Z,7.27
2023-04-11T09:25:53.894Z,7.21
2023-04-11T09:26:53.896Z,7.33
2023-04-11T09:27:53.882Z,7.44
2023-04-11T09:28:54.266Z,7.47
2023-04-11T09:29:53.864Z,7.47
2023-04-11T09:30:53.903Z,7.44
2023-04-11T09:31:53.832Z,7.42
2023-04-11T09:32:53.905Z,7.32
2023-04-11T09:33:53.844Z,7.29
2023-04-11T09:34:53.810Z,7.08
2023-04-11T09:35:53.876Z,7.11
2023-04-11T09:36:53.804Z,7.04
2023-04-11T09:37:53.768Z,7.09
2023-04-11T09:38:53.761Z,7.15
2023-04-11T09:39:53.746Z,6.96
2023-04-11T09:40:53.736Z,6.91
2023-04-11T09:41:53.729Z,6.79
2023-04-11T09:42:53.729Z,6.76
2023-04-11T09:43:53.813Z,6.55
2023-04-11T09:44:53.699Z,6.57
2023-04-11T09:45:54.804Z,6.57
2023-04-11T09:46:53.784Z,6.64
2023-04-11T09:47:53.711Z,6.61
2023-04-11T09:48:53.689Z,6.68
2023-04-11T09:49:53.638Z,6.79
2023-04-11T09:50:53.633Z,6.71
2023-04-11T09:51:53.621Z,6.72
2023-04-11T09:52:53.605Z,6.61
2023-04-11T09:53:53.592Z,6.75
2023-04-11T09:54:53.605Z,6.57
2023-04-11T09:55:53.590Z,6.53
2023-04-11T09:56:53.561Z,6.45
2023-04-11T09:57:53.560Z,6.38
2023-04-11T09:58:53.607Z,6.46
2023-04-11T09:59:53.560Z,6.58
2023-04-11T10:00:53.551Z,6.54
2023-04-11T10:01:53.691Z,6.61
2023-04-11T10:02:53.795Z,6.40
2023-04-11T10:03:53.601Z,6.36
2023-04-11T10:04:53.591Z,6.42
2023-04-11T10:05:53.462Z,6.46
2023-04-11T10:06:53.472Z,6.60
2023-04-11T10:07:53.442Z,6.60
2023-04-11T10:08:53.480Z,6.48
2023-04-11T10:09:53.430Z,6.58
2023-04-11T10:10:53.409Z,6.53
2023-04-11T10:11:53.396Z,6.38
2023-04-11T10:12:53.403Z,6.32
2023-04-11T10:13:53.374Z,6.33
2023-04-11T10:14:53.378Z,6.19
2023-04-11T10:15:53.376Z,6.46
2023-04-11T10:16:53.342Z,6.55
2023-04-11T10:17:53.383Z,6.55
2023-04-11T10:18:53.336Z,6.57
2023-04-11T10:19:53.309Z,6.42
2023-04-11T10:20:53.331Z,6.48
2023-04-11T10:21:53.299Z,6.57
2023-04-11T10:22:53.287Z,6.71
2023-04-11T10:23:53.311Z,6.83
2023-04-11T10:24:53.273Z,6.83
2023-04-11T10:25:53.263Z,6.64
2023-04-11T10:26:53.240Z,6.60
2023-04-11T10:27:53.249Z,6.69
2023-04-11T10:28:53.217Z,6.54
2023-04-11T10:29:53.247Z,6.58
2023-04-11T10:30:53.214Z,6.40
2023-04-11T10:31:53.205Z,6.33
2023-04-11T10:32:53.211Z,6.30
2023-04-11T10:33:53.160Z,6.43
2023-04-11T10:34:53.157Z,6.51
2023-04-11T10:35:53.188Z,6.51
2023-04-11T10:36:53.152Z,6.45
2023-04-11T10:37:53.116Z,6.36
2023-04-11T10:38:53.107Z,6.32
2023-04-11T10:39:53.098Z,6.46
2023-04-11T10:40:53.096Z,6.35
2023-04-11T10:41:53.086Z,6.38
2023-04-11T10:42:53.090Z,6.11
2023-04-11T10:43:53.070Z,6.33
2023-04-11T10:44:53.042Z,6.19
2023-04-11T10:45:53.033Z,6.39
2023-04-11T10:46:53.046Z,6.43
2023-04-11T10:47:53.044Z,6.61
2023-04-11T10:48:53.018Z,6.63
2023-04-11T10:49:52.990Z,6.46
2023-04-11T10:50:52.976Z,6.24
2023-04-11T10:51:52.975Z,6.01
2023-04-11T10:52:53.001Z,5.90
2023-04-11T10:53:52.953Z,5.81
2023-04-11T10:54:52.960Z,6.02
2023-04-11T10:55:52.924Z,5.78
2023-04-11T10:56:52.940Z,5.83
2023-04-11T10:57:52.900Z,6.06
2023-04-11T10:58:52.892Z,5.93
2023-04-11T10:59:52.879Z,6.02
2023-04-11T11:00:52.906Z,5.77
2023-04-11T11:01:52.896Z,5.83
2023-04-11T11:02:52.961Z,5.75
2023-04-11T11:03:52.969Z,5.85
2023-04-11T11:04:53.071Z,6.06
2023-04-11T11:05:52.825Z,6.42
2023-04-11T11:06:56.987Z,6.46
2023-04-11T11:07:52.798Z,6.30
2023-04-11T11:08:52.809Z,6.35
2023-04-11T11:09:52.786Z,6.32
2023-04-11T11:10:52.757Z,6.39
2023-04-11T11:11:52.746Z,6.73
2023-04-11T11:12:52.762Z,6.69
2023-04-11T11:13:52.743Z,6.58
2023-04-11T11:14:52.715Z,6.78
2023-04-11T11:15:52.720Z,6.69
2023-04-11T11:16:52.735Z,6.91
2023-04-11T11:17:52.807Z,7.07
2023-04-11T11:18:52.711Z,7.05
2023-04-11T11:19:52.658Z,7.23
2023-04-11T11:20:52.647Z,7.15
2023-04-11T11:21:52.642Z,7.19
2023-04-11T11:22:52.627Z,7.42
2023-04-11T11:23:52.614Z,7.36
2023-04-11T11:24:52.645Z,7.73
2023-04-11T11:25:52.593Z,7.86
2023-04-11T11:26:52.582Z,7.91
2023-04-11T11:27:52.571Z,7.42
2023-04-11T11:28:52.563Z,7.50
2023-04-11T11:29:53.114Z,7.70
2023-04-11T11:30:54.848Z,7.74
2023-04-11T11:31:52.581Z,7.88
2023-04-11T11:32:52.555Z,8.17
2023-04-11T11:33:53.984Z,8.03
2023-04-11T11:34:52.495Z,8.04
2023-04-11T11:35:52.484Z,7.88
2023-04-11T11:36:52.635Z,7.81
2023-04-11T11:37:52.461Z,7.67
2023-04-11T11:38:52.451Z,7.67
2023-04-11T11:39:52.452Z,7.45
2023-04-11T11:40:52.500Z,7.45
2023-04-11T11:41:52.452Z,7.52
2023-04-11T11:42:52.494Z,7.67
2023-04-11T11:43:52.424Z,7.66
2023-04-11T11:44:52.388Z,7.63
2023-04-11T11:45:52.441Z,7.66
2023-04-11T11:46:52.392Z,7.48
2023-04-11T11:47:52.407Z,7.62
2023-04-11T11:48:52.397Z,7.77
2023-04-11T11:49:52.381Z,7.91
2023-04-11T11:50:52.351Z,8.12
2023-04-11T11:51:52.335Z,8.42
2023-04-11T11:52:52.324Z,8.78
2023-04-11T11:53:52.336Z,8.88
2023-04-11T11:54:52.324Z,8.96
2023-04-11T11:55:52.289Z,8.91
2023-04-11T11:56:52.318Z,8.80
2023-04-11T11:57:52.264Z,8.85
2023-04-11T11:58:52.273Z,8.88
2023-04-11T11:59:52.278Z,9.06
2023-04-11T12:00:52.289Z,9.01
2023-04-11T12:01:52.259Z,8.86
2023-04-11T12:02:52.404Z,8.64
2023-04-11T12:03:52.367Z,8.71
2023-04-11T12:04:52.318Z,8.73
2023-04-11T12:05:52.210Z,8.22
2023-04-11T12:06:52.181Z,8.34
2023-04-11T12:07:52.181Z,8.29
2023-04-11T12:08:52.163Z,8.31
2023-04-11T12:09:52.135Z,8.27
2023-04-11T12:10:52.149Z,8.24
2023-04-11T12:11:52.126Z,8.10
2023-04-11T12:12:53.264Z,8.37
2023-04-11T12:13:52.113Z,8.54
2023-04-11T12:14:52.093Z,8.63
2023-04-11T12:15:52.148Z,8.52
2023-04-11T12:16:52.069Z,8.20
2023-04-11T12:17:52.159Z,8.10
2023-04-11T12:18:52.052Z,8.10
2023-04-11T12:19:52.037Z,8.27
2023-04-11T12:20:52.032Z,8.36
2023-04-11T12:21:52.001Z,8.31
2023-04-11T12:22:53.734Z,8.34
2023-04-11T12:23:52.007Z,8.25
2023-04-11T12:24:52.012Z,8.00
2023-04-11T12:25:51.986Z,7.96
2023-04-11T12:27:06.462Z,7.86
2023-04-11T12:27:52.944Z,7.66
2023-04-11T12:28:51.946Z,7.73
2023-04-11T12:29:51.926Z,7.52
2023-04-11T12:30:52.037Z,7.37
2023-04-11T12:31:52.000Z,7.54
2023-04-11T12:32:52.008Z,7.69
2023-04-11T12:33:51.880Z,7.79
2023-04-11T12:34:51.872Z,7.82
2023-04-11T12:35:51.853Z,7.89
2023-04-11T12:36:51.857Z,7.88
2023-04-11T12:37:51.845Z,7.86
2023-04-11T12:38:51.835Z,7.77
2023-04-11T12:39:51.811Z,7.71
2023-04-11T12:41:00.337Z,7.66
2023-04-11T12:41:52.791Z,7.67
2023-04-11T12:42:56.322Z,7.51
2023-04-11T12:43:52.777Z,7.44
2023-04-11T12:44:51.887Z,7.41
2023-04-11T12:45:51.741Z,7.52
2023-04-11T12:46:51.766Z,7.57
2023-04-11T12:47:51.815Z,7.45
2023-04-11T12:48:51.737Z,7.41
2023-04-11T12:49:51.715Z,7.37
2023-04-11T12:50:51.703Z,7.41
2023-04-11T12:51:51.679Z,7.50
2023-04-11T12:52:51.683Z,7.34
2023-04-11T12:53:51.662Z,7.44
2023-04-11T12:54:51.678Z,7.48
2023-04-11T12:55:51.739Z,7.36
2023-04-11T12:56:51.641Z,7.45
2023-04-11T12:57:51.622Z,7.36
2023-04-11T12:58:51.609Z,7.32
2023-04-11T12:59:51.591Z,7.23
2023-04-11T13:00:51.841Z,7.24
2023-04-11T13:01:51.669Z,7.30
2023-04-11T13:02:51.786Z,7.41
2023-04-11T13:03:51.651Z,7.27
2023-04-11T13:04:51.623Z,7.33
2023-04-11T13:05:51.508Z,7.27
2023-04-11T13:06:51.566Z,7.30
2023-04-11T13:07:51.507Z,7.19
2023-04-11T13:08:51.530Z,7.14
2023-04-11T13:09:51.497Z,7.34
2023-04-11T13:10:51.797Z,7.23
2023-04-11T13:11:51.461Z,7.36
2023-04-11T13:12:51.470Z,7.24
2023-04-11T13:13:51.439Z,7.33
2023-04-11T13:14:51.442Z,7.08
2023-04-11T13:15:51.429Z,7.15
2023-04-11T13:16:51.473Z,7.29
2023-04-11T13:17:51.417Z,7.51
2023-04-11T13:18:51.398Z,7.71
2023-04-11T13:19:51.378Z,7.73
2023-04-11T13:20:51.353Z,7.69
2023-04-11T13:21:51.348Z,7.57
2023-04-11T13:22:51.371Z,7.69
2023-04-11T13:23:51.357Z,7.73
2023-04-11T13:24:51.343Z,7.70
2023-04-11T13:25:51.357Z,7.70
2023-04-11T13:26:51.348Z,7.57
2023-04-11T13:27:51.317Z,7.66
2023-04-11T13:28:51.296Z,7.62
2023-04-11T13:29:51.284Z,7.69
2023-04-11T13:30:51.289Z,7.60
2023-04-11T13:31:51.316Z,7.48
2023-04-11T13:32:51.277Z,7.44
2023-04-11T13:33:51.224Z,7.57
2023-04-11T13:34:51.218Z,7.58
2023-04-11T13:35:51.224Z,7.67
2023-04-11T13:36:51.297Z,7.58
2023-04-11T13:37:51.189Z,7.52
2023-04-11T13:38:51.201Z,7.45
2023-04-11T13:39:51.170Z,7.42
2023-04-11T13:40:51.146Z,7.26
2023-04-11T13:41:51.147Z,7.19
2023-04-11T13:42:51.142Z,7.23
2023-04-11T13:43:51.119Z,7.23
2023-04-11T13:44:51.117Z,7.09
2023-04-11T13:45:51.172Z,7.36
2023-04-11T13:46:51.082Z,7.55
2023-04-11T13:47:51.184Z,7.57
2023-04-11T13:48:51.111Z,7.50
2023-04-11T13:49:51.068Z,7.52
2023-04-11T13:50:51.074Z,7.50
2023-04-11T13:51:51.028Z,7.50
2023-04-11T13:52:51.031Z,7.52
2023-04-11T13:53:51.030Z,7.55
2023-04-11T13:54:51.010Z,7.44
2023-04-11T13:55:50.989Z,7.48
2023-04-11T13:56:51.017Z,7.50
2023-04-11T13:57:50.967Z,7.24
2023-04-11T13:58:50.967Z,7.32
2023-04-11T13:59:50.963Z,7.34
2023-04-11T14:00:50.977Z,7.39
2023-04-11T14:01:50.944Z,7.30
2023-04-11T14:02:52.539Z,7.09
2023-04-11T14:03:50.937Z,7.05
2023-04-11T14:04:50.915Z,7.00
2023-04-11T14:05:50.880Z,7.08
2023-04-11T14:06:50.884Z,7.04
2023-04-11T14:07:50.861Z,7.11
2023-04-11T14:08:51.065Z,7.21
2023-04-11T14:09:50.833Z,7.19
2023-04-11T14:10:50.820Z,7.24
2023-04-11T14:11:50.814Z,7.24
2023-04-11T14:12:50.825Z,7.32
2023-04-11T14:13:50.793Z,7.45
2023-04-11T14:14:50.799Z,7.34
2023-04-11T14:16:01.372Z,7.48
2023-04-11T14:16:51.808Z,7.44
2023-04-11T14:17:50.735Z,7.44